createdAt,value
2022-12-19T00:00:49.234Z,20.95
2022-12-19T00:01:44.861Z,20.89
2022-12-19T00:02:40.367Z,20.90
2022-12-19T00:03:35.864Z,20.93
2022-12-19T00:04:31.356Z,20.90
2022-12-19T00:05:26.878Z,20.89
2022-12-19T00:06:22.421Z,20.86
2022-12-19T00:07:18.948Z,20.97
2022-12-19T00:08:17.544Z,20.92
2022-12-19T00:09:10.025Z,20.86
2022-12-19T00:10:05.554Z,20.88
2022-12-19T00:11:01.083Z,20.85
2022-12-19T00:11:56.618Z,20.83
2022-12-19T00:12:52.150Z,20.88
2022-12-19T00:13:47.797Z,20.89
2022-12-19T00:14:43.223Z,20.89
2022-12-19T00:15:38.765Z,20.88
2022-12-19T00:16:34.360Z,20.86
2022-12-19T00:17:18.952Z,20.90
2022-12-19T00:18:14.486Z,20.85
2022-12-19T00:19:10.025Z,20.83
2022-12-19T00:20:05.571Z,20.83
2022-12-19T00:21:01.109Z,20.92
2022-12-19T00:21:56.641Z,20.86
2022-12-19T00:22:53.196Z,20.90
2022-12-19T00:23:48.749Z,20.86
2022-12-19T00:24:44.312Z,20.89
2022-12-19T00:25:39.859Z,20.93
2022-12-19T00:26:35.400Z,20.88
2022-12-19T00:27:30.932Z,20.86
2022-12-19T00:28:26.467Z,20.77
2022-12-19T00:29:22.324Z,20.79
2022-12-19T00:30:17.741Z,20.79
2022-12-19T00:31:13.311Z,20.82
2022-12-19T00:31:58.007Z,20.80
2022-12-19T00:32:53.476Z,20.77
2022-12-19T00:33:49.026Z,20.82
2022-12-19T00:34:44.553Z,20.80
2022-12-19T00:35:40.087Z,20.82
2022-12-19T00:36:35.643Z,20.82
2022-12-19T00:37:31.170Z,20.88
2022-12-19T00:38:26.706Z,20.82
2022-12-19T00:39:22.242Z,20.83
2022-12-19T00:40:17.810Z,20.79
2022-12-19T00:41:13.344Z,20.85
2022-12-19T00:42:08.875Z,20.82
2022-12-19T00:43:04.417Z,20.83
2022-12-19T00:43:59.959Z,20.82
2022-12-19T00:44:55.620Z,20.75
2022-12-19T00:45:51.100Z,20.82
2022-12-19T00:46:52.510Z,20.88
2022-12-19T00:47:42.239Z,20.89
2022-12-19T00:48:37.770Z,20.85
2022-12-19T00:49:33.308Z,20.85
2022-12-19T00:50:28.830Z,20.89
2022-12-19T00:51:24.372Z,20.88
2022-12-19T00:52:19.909Z,20.80
2022-12-19T00:53:15.436Z,20.80
2022-12-19T00:54:10.972Z,20.82
2022-12-19T00:55:07.615Z,20.85
2022-12-19T00:56:02.041Z,20.80
2022-12-19T00:56:57.581Z,20.85
2022-12-19T00:57:53.113Z,20.82
2022-12-19T00:58:48.684Z,20.77
2022-12-19T00:59:44.216Z,20.80
2022-12-19T01:00:39.934Z,20.85
2022-12-19T01:01:35.501Z,20.83
2022-12-19T01:02:30.949Z,20.85
2022-12-19T01:03:52.882Z,20.90
2022-12-19T01:04:41.564Z,20.86
2022-12-19T01:05:32.536Z,20.85
2022-12-19T01:06:28.092Z,20.86
2022-12-19T01:07:23.621Z,20.75
2022-12-19T01:08:19.147Z,20.79
2022-12-19T01:09:14.727Z,20.73
2022-12-19T01:10:10.221Z,20.80
2022-12-19T01:11:05.759Z,20.85
2022-12-19T01:12:01.309Z,20.67
2022-12-19T01:12:56.839Z,20.74
2022-12-19T01:13:52.378Z,20.77
2022-12-19T01:14:48.919Z,20.70
2022-12-19T01:15:44.570Z,20.83
2022-12-19T01:16:40.045Z,20.73
2022-12-19T01:17:44.380Z,20.73
2022-12-19T01:18:31.059Z,20.70
2022-12-19T01:19:26.578Z,20.82
2022-12-19T01:20:29.639Z,20.77
2022-12-19T01:21:17.645Z,20.74
2022-12-19T01:22:02.314Z,20.80
2022-12-19T01:22:58.871Z,20.77
2022-12-19T01:23:53.385Z,20.83
2022-12-19T01:24:49.150Z,20.77
2022-12-19T01:25:45.923Z,20.75
2022-12-19T01:26:40.223Z,20.82
2022-12-19T01:27:35.763Z,20.75
2022-12-19T01:28:31.295Z,20.75
2022-12-19T01:29:26.819Z,20.74
2022-12-19T01:30:22.345Z,20.77
2022-12-19T01:31:18.078Z,20.75
2022-12-19T01:32:13.406Z,20.77
2022-12-19T01:33:08.934Z,20.77
2022-12-19T01:34:04.479Z,20.68
2022-12-19T01:35:00.014Z,20.79
2022-12-19T01:35:55.572Z,20.83
2022-12-19T01:36:51.105Z,20.79
2022-12-19T01:37:46.644Z,20.77
2022-12-19T01:38:42.186Z,20.73
2022-12-19T01:39:37.727Z,20.80
2022-12-19T01:40:33.295Z,20.73
2022-12-19T01:41:28.823Z,20.75
2022-12-19T01:42:24.395Z,20.80
2022-12-19T01:43:19.883Z,20.77
2022-12-19T01:44:15.412Z,20.79
2022-12-19T01:45:13.820Z,20.74
2022-12-19T01:46:06.496Z,20.77
2022-12-19T01:47:02.115Z,20.71
2022-12-19T01:47:57.542Z,20.71
2022-12-19T01:48:54.083Z,20.75
2022-12-19T01:49:49.634Z,20.80
2022-12-19T01:50:45.313Z,20.70
2022-12-19T01:51:47.863Z,20.80
2022-12-19T01:52:43.398Z,20.77
2022-12-19T01:53:48.770Z,20.75
2022-12-19T01:54:34.466Z,20.75
2022-12-19T01:55:29.997Z,20.89
2022-12-19T01:56:25.496Z,20.80
2022-12-19T01:57:21.024Z,20.79
2022-12-19T01:58:16.545Z,20.80
2022-12-19T01:59:12.076Z,20.75
2022-12-19T02:00:07.616Z,20.71
2022-12-19T02:01:03.191Z,20.74
2022-12-19T02:01:58.958Z,20.77
2022-12-19T02:02:54.591Z,20.75
2022-12-19T02:03:49.745Z,20.71
2022-12-19T02:04:45.284Z,20.79
2022-12-19T02:05:40.817Z,20.74
2022-12-19T02:06:36.348Z,20.77
2022-12-19T02:07:31.875Z,20.74
2022-12-19T02:08:27.409Z,20.71
2022-12-19T02:09:22.949Z,20.75
2022-12-19T02:10:18.501Z,20.79
2022-12-19T02:11:14.031Z,20.79
2022-12-19T02:12:09.585Z,20.73
2022-12-19T02:13:05.121Z,20.80
2022-12-19T02:14:00.659Z,20.73
2022-12-19T02:15:02.741Z,20.75
2022-12-19T02:15:51.737Z,20.83
2022-12-19T02:16:47.369Z,20.83
2022-12-19T02:17:42.832Z,20.83
2022-12-19T02:18:38.473Z,20.71
2022-12-19T02:19:33.907Z,20.71
2022-12-19T02:20:29.524Z,20.75
2022-12-19T02:21:24.984Z,20.73
2022-12-19T02:22:20.519Z,20.74
2022-12-19T02:23:16.047Z,20.73
2022-12-19T02:24:11.587Z,20.68
2022-12-19T02:25:07.139Z,20.75
2022-12-19T02:26:02.685Z,20.75
2022-12-19T02:26:58.223Z,20.74
2022-12-19T02:27:53.854Z,20.71
2022-12-19T02:28:49.383Z,20.73
2022-12-19T02:29:44.942Z,20.73
2022-12-19T02:30:40.453Z,20.74
2022-12-19T02:31:36.030Z,20.77
2022-12-19T02:32:31.537Z,20.73
2022-12-19T02:33:27.081Z,20.75
2022-12-19T02:34:22.744Z,20.71
2022-12-19T02:35:18.157Z,20.73
2022-12-19T02:36:13.698Z,20.77
2022-12-19T02:37:09.290Z,20.71
2022-12-19T02:38:06.303Z,20.71
2022-12-19T02:39:00.346Z,20.75
2022-12-19T02:39:55.889Z,20.77
2022-12-19T02:40:51.913Z,20.74
2022-12-19T02:41:46.965Z,20.73
2022-12-19T02:42:42.530Z,20.73
2022-12-19T02:43:38.055Z,20.70
2022-12-19T02:44:33.600Z,20.74
2022-12-19T02:45:29.139Z,20.74
2022-12-19T02:46:24.686Z,20.77
2022-12-19T02:47:20.211Z,20.74
2022-12-19T02:48:19.277Z,20.75
2022-12-19T02:49:11.306Z,20.73
2022-12-19T02:50:06.967Z,20.70
2022-12-19T02:51:02.372Z,20.73
2022-12-19T02:51:57.913Z,20.75
2022-12-19T02:52:53.458Z,20.71
2022-12-19T02:53:49.014Z,20.70
2022-12-19T02:54:45.091Z,20.68
2022-12-19T02:55:40.091Z,20.77
2022-12-19T02:56:35.632Z,20.74
2022-12-19T02:57:31.170Z,20.71
2022-12-19T02:58:27.719Z,20.67
2022-12-19T02:59:23.257Z,20.71
2022-12-19T03:00:18.799Z,20.71
2022-12-19T03:01:14.365Z,20.73
2022-12-19T03:02:10.060Z,20.75
2022-12-19T03:03:05.543Z,20.67
2022-12-19T03:04:00.981Z,20.63
2022-12-19T03:04:56.533Z,20.65
2022-12-19T03:05:52.204Z,20.71
2022-12-19T03:06:47.628Z,20.68
2022-12-19T03:07:43.163Z,20.71
2022-12-19T03:08:38.706Z,20.68
2022-12-19T03:09:34.253Z,20.73
2022-12-19T03:10:29.789Z,20.77
2022-12-19T03:11:25.327Z,20.71
2022-12-19T03:12:20.874Z,20.73
2022-12-19T03:13:16.411Z,20.71
2022-12-19T03:14:11.951Z,20.74
2022-12-19T03:15:07.498Z,20.64
2022-12-19T03:16:03.052Z,20.74
2022-12-19T03:16:58.605Z,20.68
2022-12-19T03:17:54.133Z,20.68
2022-12-19T03:18:49.671Z,20.71
2022-12-19T03:19:45.220Z,20.67
2022-12-19T03:20:40.770Z,20.70
2022-12-19T03:21:36.435Z,20.68
2022-12-19T03:22:31.856Z,20.60
2022-12-19T03:23:27.398Z,20.64
2022-12-19T03:24:22.941Z,20.65
2022-12-19T03:25:18.487Z,20.67
2022-12-19T03:26:14.047Z,20.68
2022-12-19T03:27:09.576Z,20.70
2022-12-19T03:28:05.125Z,20.67
2022-12-19T03:29:00.666Z,20.75
2022-12-19T03:29:56.197Z,20.71
2022-12-19T03:30:51.772Z,20.71
2022-12-19T03:31:47.304Z,20.73
2022-12-19T03:32:42.822Z,20.74
2022-12-19T03:33:38.378Z,20.75
2022-12-19T03:34:33.912Z,20.71
2022-12-19T03:35:29.459Z,20.74
2022-12-19T03:36:25.009Z,20.75
2022-12-19T03:37:20.664Z,20.75
2022-12-19T03:38:16.086Z,20.73
2022-12-19T03:39:11.625Z,20.68
2022-12-19T03:40:07.191Z,20.71
2022-12-19T03:41:02.722Z,20.73
2022-12-19T03:41:58.318Z,20.77
2022-12-19T03:42:53.867Z,20.73
2022-12-19T03:43:49.393Z,20.68
2022-12-19T03:44:44.936Z,20.68
2022-12-19T03:45:40.547Z,20.71
2022-12-19T03:46:36.009Z,20.71
2022-12-19T03:47:31.553Z,20.68
2022-12-19T03:48:27.097Z,20.73
2022-12-19T03:49:22.646Z,20.67
2022-12-19T03:50:18.172Z,20.71
2022-12-19T03:51:13.713Z,20.68
2022-12-19T03:52:09.240Z,20.74
2022-12-19T03:53:04.901Z,20.71
2022-12-19T03:54:00.323Z,20.70
2022-12-19T03:54:55.865Z,20.70
2022-12-19T03:55:51.420Z,20.64
2022-12-19T03:56:46.967Z,20.70
2022-12-19T03:57:42.510Z,20.71
2022-12-19T03:58:38.074Z,20.71
2022-12-19T03:59:33.611Z,20.73
2022-12-19T04:00:29.153Z,20.73
2022-12-19T04:01:24.793Z,20.70
2022-12-19T04:02:20.414Z,20.67
2022-12-19T04:03:15.839Z,20.68
2022-12-19T04:04:11.343Z,20.67
2022-12-19T04:05:06.881Z,20.56
2022-12-19T04:06:02.435Z,20.67
2022-12-19T04:06:57.981Z,20.60
2022-12-19T04:07:53.541Z,20.60
2022-12-19T04:08:49.192Z,20.58
2022-12-19T04:09:44.621Z,20.60
2022-12-19T04:10:40.162Z,20.60
2022-12-19T04:11:35.705Z,20.58
2022-12-19T04:12:31.254Z,20.63
2022-12-19T04:13:26.797Z,20.63
2022-12-19T04:14:22.344Z,20.53
2022-12-19T04:15:17.883Z,20.64
2022-12-19T04:16:13.508Z,20.61
2022-12-19T04:17:08.983Z,20.50
2022-12-19T04:18:04.504Z,20.56
2022-12-19T04:19:00.084Z,20.46
2022-12-19T04:19:55.685Z,20.64
2022-12-19T04:20:51.244Z,20.68
2022-12-19T04:21:46.787Z,20.60
2022-12-19T04:22:42.332Z,20.60
2022-12-19T04:23:37.884Z,20.63
2022-12-19T04:24:33.530Z,20.60
2022-12-19T04:25:29.722Z,20.56
2022-12-19T04:26:24.518Z,20.61
2022-12-19T04:27:20.049Z,20.61
2022-12-19T04:28:15.605Z,20.65
2022-12-19T04:29:11.128Z,20.53
2022-12-19T04:30:06.670Z,20.49
2022-12-19T04:31:02.315Z,20.58
2022-12-19T04:31:57.726Z,20.58
2022-12-19T04:32:53.277Z,20.61
2022-12-19T04:33:48.785Z,20.64
2022-12-19T04:34:44.332Z,20.61
2022-12-19T04:35:39.854Z,20.60
2022-12-19T04:36:35.401Z,20.64
2022-12-19T04:37:30.934Z,20.63
2022-12-19T04:38:28.096Z,20.50
2022-12-19T04:39:23.122Z,20.64
2022-12-19T04:40:18.788Z,20.58
2022-12-19T04:41:14.241Z,20.60
2022-12-19T04:42:09.781Z,20.60
2022-12-19T04:43:05.316Z,20.46
2022-12-19T04:44:00.875Z,20.68
2022-12-19T04:44:56.408Z,20.63
2022-12-19T04:45:57.153Z,20.56
2022-12-19T04:46:47.513Z,20.60
2022-12-19T04:47:43.030Z,20.61
2022-12-19T04:48:38.562Z,20.64
2022-12-19T04:49:34.103Z,20.65
2022-12-19T04:50:29.648Z,20.74
2022-12-19T04:51:25.193Z,20.63
2022-12-19T04:52:20.733Z,20.73
2022-12-19T04:53:16.261Z,20.80
2022-12-19T04:54:11.796Z,20.80
2022-12-19T04:55:07.338Z,20.73
2022-12-19T04:56:03.005Z,20.80
2022-12-19T04:56:58.446Z,20.75
2022-12-19T04:57:53.991Z,20.82
2022-12-19T04:58:49.531Z,20.89
2022-12-19T04:59:45.082Z,20.85
2022-12-19T05:00:40.628Z,20.90
2022-12-19T05:01:36.311Z,20.95
2022-12-19T05:02:31.958Z,20.97
2022-12-19T05:03:27.344Z,20.93
2022-12-19T05:04:22.853Z,21.04
2022-12-19T05:05:18.404Z,21.07
2022-12-19T05:06:13.929Z,21.08
2022-12-19T05:07:09.485Z,21.14
2022-12-19T05:08:05.031Z,21.13
2022-12-19T05:09:01.066Z,21.14
2022-12-19T05:09:56.599Z,21.08
2022-12-19T05:10:52.151Z,21.13
2022-12-19T05:11:47.809Z,21.16
2022-12-19T05:12:43.235Z,21.14
2022-12-19T05:13:38.781Z,21.10
2022-12-19T05:14:34.312Z,21.10
2022-12-19T05:15:29.855Z,21.08
2022-12-19T05:16:25.438Z,21.16
2022-12-19T05:17:20.941Z,21.03
2022-12-19T05:18:16.496Z,21.10
2022-12-19T05:19:12.052Z,21.01
2022-12-19T05:20:07.598Z,20.97
2022-12-19T05:21:03.159Z,21.10
2022-12-19T05:21:58.701Z,21.08
2022-12-19T05:22:54.233Z,21.14
2022-12-19T05:23:49.783Z,21.11
2022-12-19T05:24:45.326Z,21.20
2022-12-19T05:25:40.871Z,21.16
2022-12-19T05:26:36.419Z,21.10
2022-12-19T05:27:32.070Z,21.11
2022-12-19T05:28:27.509Z,21.19
2022-12-19T05:29:23.056Z,21.19
2022-12-19T05:30:18.582Z,21.19
2022-12-19T05:31:14.161Z,21.19
2022-12-19T05:32:09.669Z,21.13
2022-12-19T05:33:05.247Z,21.18
2022-12-19T05:34:00.781Z,21.23
2022-12-19T05:34:56.323Z,21.30
2022-12-19T05:35:51.859Z,21.30
2022-12-19T05:36:47.415Z,21.34
2022-12-19T05:37:42.943Z,21.23
2022-12-19T05:38:38.483Z,21.30
2022-12-19T05:39:34.027Z,21.25
2022-12-19T05:40:29.555Z,21.28
2022-12-19T05:41:25.098Z,21.25
2022-12-19T05:42:20.648Z,21.25
2022-12-19T05:43:16.287Z,21.29
2022-12-19T05:44:11.726Z,21.28
2022-12-19T05:45:07.251Z,21.25
2022-12-19T05:46:02.812Z,21.19
2022-12-19T05:46:58.489Z,21.20
2022-12-19T05:47:58.648Z,21.26
2022-12-19T05:48:50.408Z,21.19
2022-12-19T05:49:46.429Z,21.13
2022-12-19T05:50:42.479Z,21.13
2022-12-19T05:51:38.016Z,21.10
2022-12-19T05:52:33.604Z,21.08
2022-12-19T05:53:29.136Z,21.05
2022-12-19T05:54:24.679Z,21.11
2022-12-19T05:55:20.225Z,21.08
2022-12-19T05:56:15.781Z,21.19
2022-12-19T05:57:11.318Z,21.20
2022-12-19T05:58:06.865Z,21.23
2022-12-19T05:59:02.525Z,21.25
2022-12-19T05:59:57.963Z,21.13
2022-12-19T06:00:56.882Z,21.26
2022-12-19T06:01:49.241Z,21.30
2022-12-19T06:02:45.225Z,21.23
2022-12-19T06:03:40.789Z,21.26
2022-12-19T06:04:36.749Z,21.29
2022-12-19T06:05:32.774Z,21.26
2022-12-19T06:06:28.789Z,21.29
2022-12-19T06:07:24.815Z,21.34
2022-12-19T06:08:20.831Z,21.40
2022-12-19T06:09:16.873Z,21.37
2022-12-19T06:10:12.894Z,21.35
2022-12-19T06:11:08.440Z,21.37
2022-12-19T06:12:04.005Z,21.40
2022-12-19T06:12:59.534Z,21.40
2022-12-19T06:13:44.201Z,21.41
2022-12-19T06:14:39.855Z,21.40
2022-12-19T06:15:35.277Z,21.30
2022-12-19T06:16:30.841Z,21.37
2022-12-19T06:17:26.328Z,21.26
2022-12-19T06:18:21.866Z,21.30
2022-12-19T06:19:17.400Z,21.26
2022-12-19T06:20:12.942Z,21.22
2022-12-19T06:21:08.478Z,21.20
2022-12-19T06:22:04.014Z,21.22
2022-12-19T06:22:59.641Z,21.16
2022-12-19T06:23:55.181Z,21.16
2022-12-19T06:24:50.707Z,21.13
2022-12-19T06:25:46.236Z,21.11
2022-12-19T06:26:41.759Z,21.11
2022-12-19T06:27:37.284Z,21.13
2022-12-19T06:28:32.821Z,21.13
2022-12-19T06:29:28.353Z,21.22
2022-12-19T06:30:24.031Z,21.19
2022-12-19T06:31:19.481Z,21.22
2022-12-19T06:32:14.988Z,21.13
2022-12-19T06:33:10.516Z,21.18
2022-12-19T06:34:06.044Z,21.14
2022-12-19T06:35:04.371Z,21.16
2022-12-19T06:35:57.210Z,21.13
2022-12-19T06:36:52.743Z,21.14
2022-12-19T06:37:48.279Z,21.19
2022-12-19T06:38:43.820Z,21.10
2022-12-19T06:39:39.349Z,21.13
2022-12-19T06:40:24.037Z,21.08
2022-12-19T06:41:19.568Z,21.16
2022-12-19T06:42:15.111Z,21.16
2022-12-19T06:43:10.640Z,21.16
2022-12-19T06:44:06.176Z,21.08
2022-12-19T06:45:01.716Z,21.05
2022-12-19T06:45:57.405Z,21.13
2022-12-19T06:47:04.065Z,21.10
2022-12-19T06:47:59.607Z,21.16
2022-12-19T06:48:55.133Z,21.16
2022-12-19T06:49:50.671Z,21.10
2022-12-19T06:50:46.207Z,21.05
2022-12-19T06:51:41.748Z,21.22
2022-12-19T06:52:37.297Z,21.08
2022-12-19T06:53:32.830Z,21.08
2022-12-19T06:54:28.370Z,21.10
2022-12-19T06:55:23.910Z,21.10
2022-12-19T06:56:19.456Z,21.04
2022-12-19T06:57:14.995Z,21.03
2022-12-19T06:58:10.575Z,21.10
2022-12-19T06:59:06.118Z,21.01
2022-12-19T07:00:01.657Z,21.10
2022-12-19T07:00:57.249Z,21.04
2022-12-19T07:01:52.961Z,21.07
2022-12-19T07:02:48.409Z,21.11
2022-12-19T07:03:43.825Z,21.04
2022-12-19T07:04:39.358Z,21.13
2022-12-19T07:05:34.904Z,21.10
2022-12-19T07:06:30.445Z,21.08
2022-12-19T07:07:25.996Z,21.07
2022-12-19T07:08:21.532Z,21.10
2022-12-19T07:09:17.077Z,21.11
2022-12-19T07:10:12.711Z,21.07
2022-12-19T07:11:08.153Z,21.08
2022-12-19T07:12:03.689Z,21.10
2022-12-19T07:12:59.231Z,21.11
2022-12-19T07:13:54.769Z,21.11
2022-12-19T07:14:53.281Z,21.03
2022-12-19T07:15:45.853Z,21.10
2022-12-19T07:16:41.560Z,21.04
2022-12-19T07:17:37.035Z,21.01
2022-12-19T07:18:32.476Z,20.95
2022-12-19T07:19:28.022Z,20.95
2022-12-19T07:20:23.559Z,21.07
2022-12-19T07:21:19.099Z,21.10
2022-12-19T07:22:14.649Z,21.08
2022-12-19T07:23:10.155Z,20.95
2022-12-19T07:24:05.708Z,21.11
2022-12-19T07:25:01.242Z,21.08
2022-12-19T07:25:56.774Z,21.07
2022-12-19T07:26:52.311Z,21.14
2022-12-19T07:27:47.841Z,21.10
2022-12-19T07:28:43.389Z,21.14
2022-12-19T07:29:38.930Z,21.07
2022-12-19T07:30:34.435Z,21.03
2022-12-19T07:31:30.018Z,21.00
2022-12-19T07:32:25.492Z,21.05
2022-12-19T07:33:22.015Z,21.01
2022-12-19T07:34:16.562Z,21.01
2022-12-19T07:35:12.104Z,21.01
2022-12-19T07:36:07.620Z,20.97
2022-12-19T07:37:03.177Z,21.00
2022-12-19T07:37:58.681Z,20.90
2022-12-19T07:38:54.202Z,20.93
2022-12-19T07:39:49.731Z,20.93
2022-12-19T07:40:45.271Z,20.97
2022-12-19T07:41:40.806Z,20.90
2022-12-19T07:42:36.341Z,20.93
2022-12-19T07:43:31.868Z,20.89
2022-12-19T07:44:27.404Z,20.89
2022-12-19T07:45:22.925Z,20.86
2022-12-19T07:46:18.502Z,20.88
2022-12-19T07:47:13.998Z,20.89
2022-12-19T07:48:09.515Z,20.89
2022-12-19T07:49:05.158Z,20.89
2022-12-19T07:50:00.588Z,20.90
2022-12-19T07:50:56.114Z,20.86
2022-12-19T07:51:51.699Z,20.90
2022-12-19T07:52:47.226Z,20.88
2022-12-19T07:53:42.782Z,20.90
2022-12-19T07:54:38.301Z,20.90
2022-12-19T07:55:33.851Z,20.92
2022-12-19T07:56:29.357Z,20.88
2022-12-19T07:57:24.890Z,20.89
2022-12-19T07:58:20.428Z,20.88
2022-12-19T07:59:15.984Z,20.90
2022-12-19T08:00:11.508Z,20.92
2022-12-19T08:01:07.092Z,20.98
2022-12-19T08:02:02.904Z,20.95
2022-12-19T08:02:58.233Z,21.01
2022-12-19T08:03:53.645Z,21.01
2022-12-19T08:04:49.313Z,21.03
2022-12-19T08:05:44.737Z,20.95
2022-12-19T08:06:41.538Z,20.97
2022-12-19T08:07:35.795Z,20.95
2022-12-19T08:08:31.320Z,20.93
2022-12-19T08:09:26.860Z,20.95
2022-12-19T08:10:22.402Z,20.97
2022-12-19T08:11:17.938Z,20.97
2022-12-19T08:12:13.479Z,20.83
2022-12-19T08:13:09.032Z,20.88
2022-12-19T08:14:04.555Z,20.93
2022-12-19T08:15:00.160Z,20.97
2022-12-19T08:15:55.656Z,20.90
2022-12-19T08:17:19.343Z,20.98
2022-12-19T08:17:46.781Z,21.05
2022-12-19T08:18:42.279Z,21.05
2022-12-19T08:19:37.804Z,20.97
2022-12-19T08:20:33.451Z,21.07
2022-12-19T08:21:29.122Z,21.05
2022-12-19T08:22:24.451Z,21.08
2022-12-19T08:23:19.978Z,21.16
2022-12-19T08:24:15.525Z,21.10
2022-12-19T08:25:11.062Z,21.11
2022-12-19T08:26:06.619Z,21.10
2022-12-19T08:27:02.155Z,21.10
2022-12-19T08:27:57.699Z,21.20
2022-12-19T08:28:53.243Z,21.19
2022-12-19T08:29:48.780Z,21.14
2022-12-19T08:30:33.493Z,21.18
2022-12-19T08:31:30.010Z,21.25
2022-12-19T08:32:25.551Z,21.29
2022-12-19T08:33:21.203Z,21.25
2022-12-19T08:34:16.736Z,21.29
2022-12-19T08:35:12.293Z,21.28
2022-12-19T08:36:07.961Z,21.28
2022-12-19T08:37:03.378Z,21.35
2022-12-19T08:37:58.914Z,21.26
2022-12-19T08:38:54.459Z,21.26
2022-12-19T08:39:50.014Z,21.28
2022-12-19T08:40:47.541Z,21.25
2022-12-19T08:41:41.110Z,21.28
2022-12-19T08:42:36.667Z,21.30
2022-12-19T08:43:32.195Z,21.26
2022-12-19T08:44:27.739Z,21.28
2022-12-19T08:45:23.286Z,21.29
2022-12-19T08:46:18.986Z,21.28
2022-12-19T08:47:03.342Z,21.23
2022-12-19T08:47:58.879Z,21.23
2022-12-19T08:48:54.429Z,21.13
2022-12-19T08:50:05.095Z,21.16
2022-12-19T08:51:00.645Z,21.28
2022-12-19T08:51:56.317Z,21.28
2022-12-19T08:52:51.739Z,21.22
2022-12-19T08:53:47.267Z,21.26
2022-12-19T08:54:42.805Z,21.22
2022-12-19T08:55:38.345Z,21.20
2022-12-19T08:56:33.893Z,21.29
2022-12-19T08:57:29.436Z,21.29
2022-12-19T08:58:24.997Z,21.29
2022-12-19T08:59:22.132Z,21.26
2022-12-19T09:00:16.077Z,21.25
2022-12-19T09:01:11.676Z,21.26
2022-12-19T09:02:07.316Z,21.29
2022-12-19T09:03:02.909Z,21.38
2022-12-19T09:04:42.641Z,21.32
2022-12-19T09:06:03.130Z,21.37
2022-12-19T09:06:03.827Z,21.26
2022-12-19T09:06:45.967Z,21.40
2022-12-19T09:07:41.549Z,21.30
2022-12-19T09:08:36.998Z,21.40
2022-12-19T09:09:32.558Z,21.37
2022-12-19T09:10:28.101Z,21.34
2022-12-19T09:11:23.651Z,21.26
2022-12-19T09:12:19.186Z,21.28
2022-12-19T09:13:14.735Z,21.28
2022-12-19T09:14:10.278Z,21.25
2022-12-19T09:15:05.820Z,21.28
2022-12-19T09:16:01.362Z,21.28
2022-12-19T09:16:56.932Z,21.23
2022-12-19T09:17:52.456Z,21.23
2022-12-19T09:18:48.616Z,21.29
2022-12-19T09:19:47.653Z,21.23
2022-12-19T09:20:39.095Z,21.23
2022-12-19T09:21:34.631Z,21.37
2022-12-19T09:22:30.164Z,21.25
2022-12-19T09:23:25.841Z,21.43
2022-12-19T09:24:21.283Z,21.35
2022-12-19T09:25:16.818Z,21.40
2022-12-19T09:26:12.376Z,21.40
2022-12-19T09:27:07.920Z,21.35
2022-12-19T09:28:27.245Z,21.35
2022-12-19T09:28:58.995Z,21.34
2022-12-19T09:29:54.734Z,21.38
2022-12-19T09:30:50.360Z,21.40
2022-12-19T09:31:45.841Z,21.25
2022-12-19T09:32:41.372Z,21.32
2022-12-19T09:33:43.130Z,21.28
2022-12-19T09:34:38.623Z,21.25
2022-12-19T09:35:30.440Z,21.23
2022-12-19T09:36:23.546Z,21.22
2022-12-19T09:37:19.084Z,21.13
2022-12-19T09:38:14.622Z,21.18
2022-12-19T09:39:10.314Z,21.19
2022-12-19T09:40:05.707Z,21.19
2022-12-19T09:41:01.249Z,21.19
2022-12-19T09:41:56.790Z,21.25
2022-12-19T09:42:52.329Z,21.18
2022-12-19T09:43:47.876Z,21.19
2022-12-19T09:44:43.424Z,21.20
2022-12-19T09:45:38.980Z,21.26
2022-12-19T09:46:34.559Z,21.23
2022-12-19T09:47:30.060Z,21.28
2022-12-19T09:48:25.611Z,21.26
2022-12-19T09:49:21.165Z,21.23
2022-12-19T09:50:16.722Z,21.25
2022-12-19T09:51:12.272Z,21.26
2022-12-19T09:52:07.813Z,21.19
2022-12-19T09:53:03.357Z,21.19
2022-12-19T09:53:58.896Z,21.14
2022-12-19T09:54:54.558Z,21.19
2022-12-19T09:55:49.998Z,21.19
2022-12-19T09:56:46.915Z,21.22
2022-12-19T09:57:41.090Z,21.07
2022-12-19T09:58:36.645Z,21.11
2022-12-19T09:59:41.367Z,21.13
2022-12-19T10:00:27.736Z,21.19
2022-12-19T10:01:23.403Z,21.08
2022-12-19T10:02:19.028Z,21.14
2022-12-19T10:03:14.644Z,21.14
2022-12-19T10:04:09.950Z,21.20
2022-12-19T10:05:23.064Z,21.11
2022-12-19T10:07:15.825Z,21.08
2022-12-19T10:07:16.884Z,21.14
2022-12-19T10:08:08.497Z,21.11
2022-12-19T10:09:58.672Z,21.08
2022-12-19T10:12:36.579Z,21.05
2022-12-19T10:12:38.829Z,21.05
2022-12-19T10:12:39.795Z,21.20
2022-12-19T10:12:46.408Z,21.16
2022-12-19T10:13:25.479Z,21.19
2022-12-19T10:14:22.040Z,21.20
2022-12-19T10:15:17.578Z,21.28
2022-12-19T10:16:13.161Z,21.23
2022-12-19T10:17:24.300Z,21.22
2022-12-19T10:18:04.215Z,21.28
2022-12-19T10:18:59.754Z,21.26
2022-12-19T10:19:55.374Z,21.22
2022-12-19T10:20:50.906Z,21.23
2022-12-19T10:22:42.052Z,21.19
2022-12-19T10:23:37.586Z,21.16
2022-12-19T10:24:35.162Z,21.20
2022-12-19T10:25:28.714Z,21.13
2022-12-19T10:26:24.375Z,21.11
2022-12-19T10:27:19.810Z,21.10
2022-12-19T10:28:15.363Z,21.08
2022-12-19T10:29:10.894Z,21.10
2022-12-19T10:30:06.433Z,21.14
2022-12-19T10:31:11.352Z,21.19
2022-12-19T10:31:57.697Z,21.08
2022-12-19T10:32:53.048Z,21.16
2022-12-19T10:33:48.617Z,21.14
2022-12-19T10:34:44.150Z,21.11
2022-12-19T10:35:39.700Z,21.13
2022-12-19T10:37:04.292Z,21.16
2022-12-19T10:37:42.109Z,21.14
2022-12-19T10:38:26.322Z,21.08
2022-12-19T10:39:21.859Z,21.13
2022-12-19T10:40:26.478Z,21.11
2022-12-19T10:41:12.948Z,21.18
2022-12-19T10:42:08.592Z,21.20
2022-12-19T10:43:11.555Z,21.23
2022-12-19T10:43:59.565Z,21.30
2022-12-19T10:44:55.128Z,21.25
2022-12-19T10:45:50.651Z,21.30
2022-12-19T10:46:46.363Z,21.20
2022-12-19T10:47:41.725Z,21.22
2022-12-19T10:48:37.283Z,21.20
2022-12-19T10:49:32.923Z,21.18
2022-12-19T10:50:28.439Z,21.19
2022-12-19T10:51:24.004Z,21.20
2022-12-19T10:52:19.522Z,21.19
2022-12-19T10:53:15.065Z,21.14
2022-12-19T10:54:10.602Z,21.08
2022-12-19T10:55:06.181Z,21.16
2022-12-19T10:56:01.724Z,21.13
2022-12-19T10:56:57.234Z,21.04
2022-12-19T10:57:52.946Z,21.19
2022-12-19T10:58:48.327Z,21.16
2022-12-19T10:59:43.874Z,21.16
2022-12-19T11:00:39.448Z,21.07
2022-12-19T11:01:35.068Z,21.13
2022-12-19T11:02:30.683Z,21.13
2022-12-19T11:03:26.257Z,21.16
2022-12-19T11:04:21.685Z,21.14
2022-12-19T11:05:17.181Z,21.16
2022-12-19T11:06:12.671Z,21.13
2022-12-19T11:07:08.208Z,21.14
2022-12-19T11:08:03.861Z,21.14
2022-12-19T11:08:59.400Z,21.08
2022-12-19T11:10:13.401Z,21.18
2022-12-19T11:12:19.479Z,21.22
2022-12-19T11:15:18.547Z,21.18
2022-12-19T11:17:29.493Z,21.14
2022-12-19T11:18:33.977Z,21.13
2022-12-19T11:19:39.694Z,21.18
2022-12-19T11:19:49.156Z,21.22
2022-12-19T11:21:36.941Z,21.19
2022-12-19T11:24:15.660Z,21.19
2022-12-19T11:24:46.173Z,21.08
2022-12-19T11:28:40.377Z,21.11
2022-12-19T11:29:32.232Z,21.13
2022-12-19T11:29:35.301Z,21.10
2022-12-19T11:29:37.051Z,21.10
2022-12-19T11:29:38.938Z,21.14
2022-12-19T11:29:43.950Z,21.08
2022-12-19T11:29:45.691Z,21.10
2022-12-19T11:29:46.626Z,21.10
2022-12-19T11:30:06.174Z,21.13
2022-12-19T11:30:35.303Z,21.05
2022-12-19T11:30:38.169Z,21.05
2022-12-19T11:31:50.945Z,21.08
2022-12-19T11:32:39.651Z,21.07
2022-12-19T11:33:04.604Z,21.10
2022-12-19T11:34:00.120Z,21.14
2022-12-19T11:34:55.609Z,21.08
2022-12-19T11:35:51.138Z,21.08
2022-12-19T11:36:46.669Z,21.13
2022-12-19T11:37:42.200Z,21.08
2022-12-19T11:38:37.737Z,21.13
2022-12-19T11:39:33.302Z,21.13
2022-12-19T11:40:28.822Z,21.10
2022-12-19T11:41:24.344Z,20.95
2022-12-19T11:42:19.880Z,21.14
2022-12-19T11:44:11.145Z,21.08
2022-12-19T11:45:06.809Z,20.98
2022-12-19T11:46:02.264Z,20.98
2022-12-19T11:46:57.802Z,20.98
2022-12-19T11:47:53.318Z,21.08
2022-12-19T11:48:48.864Z,21.05
2022-12-19T11:49:44.395Z,21.10
2022-12-19T11:50:39.926Z,21.03
2022-12-19T11:51:35.452Z,21.08
2022-12-19T11:53:37.993Z,20.97
2022-12-19T11:54:33.534Z,21.03
2022-12-19T11:55:29.055Z,21.01
2022-12-19T11:56:24.590Z,21.03
2022-12-19T11:57:20.231Z,21.04
2022-12-19T11:58:15.765Z,20.97
2022-12-19T11:59:11.291Z,20.98
2022-12-19T12:00:06.829Z,20.98